createdAt,value
2023-04-24T00:00:32.620Z,99863.56
2023-04-24T00:03:21.381Z,99858.94
2023-04-24T00:05:47.910Z,99856.03
2023-04-24T00:08:14.518Z,99856.28
2023-04-24T00:10:41.622Z,99850.19
2023-04-24T00:13:08.170Z,99842.63
2023-04-24T00:15:34.516Z,99836.75
2023-04-24T00:18:01.667Z,99832.56
2023-04-24T00:20:29.767Z,99833.84
2023-04-24T00:22:56.148Z,99830.50
2023-04-24T00:25:22.334Z,99822.97
2023-04-24T00:27:48.993Z,99825.91
2023-04-24T00:30:15.126Z,99831.16
2023-04-24T00:32:41.746Z,99829.28
2023-04-24T00:35:07.931Z,99828.66
2023-04-24T00:37:34.357Z,99817.09
2023-04-24T00:40:00.517Z,99820.03
2023-04-24T00:42:27.426Z,99817.91
2023-04-24T00:44:54.030Z,99808.47
2023-04-24T00:47:22.125Z,99799.22
2023-04-24T00:49:48.239Z,99791.03
2023-04-24T00:52:17.922Z,99801.91
2023-04-24T00:54:48.227Z,99792.88
2023-04-24T00:57:15.567Z,99782.38
2023-04-24T00:59:42.948Z,99791.19
2023-04-24T01:02:11.185Z,99797.28
2023-04-24T01:04:38.320Z,99792.22
2023-04-24T01:07:10.768Z,99792.84
2023-04-24T01:09:49.146Z,99801.06
2023-04-24T01:12:15.805Z,99794.09
2023-04-24T01:14:43.788Z,99796.16
2023-04-24T01:17:11.212Z,99794.47
2023-04-24T01:19:38.230Z,99801.84
2023-04-24T01:22:10.968Z,99801.00
2023-04-24T01:24:37.083Z,99796.41
2023-04-24T01:27:05.140Z,99795.31
2023-04-24T01:29:31.322Z,99798.69
2023-04-24T01:31:58.757Z,99804.13
2023-04-24T01:34:25.425Z,99795.56
2023-04-24T01:36:51.881Z,99796.25
2023-04-24T01:39:20.804Z,99791.81
2023-04-24T01:41:47.200Z,99782.16
2023-04-24T01:44:13.384Z,99783.13
2023-04-24T01:46:40.039Z,99767.06
2023-04-24T01:49:06.250Z,99758.44
2023-04-24T01:51:32.592Z,99764.94
2023-04-24T01:53:58.725Z,99756.34
2023-04-24T01:56:26.021Z,99761.19
2023-04-24T01:58:53.920Z,99763.13
2023-04-24T02:01:21.224Z,99774.47
2023-04-24T02:03:47.917Z,99757.75
2023-04-24T02:06:14.458Z,99753.53
2023-04-24T02:08:40.570Z,99756.50
2023-04-24T02:11:08.570Z,99752.72
2023-04-24T02:13:34.713Z,99747.03
2023-04-24T02:16:01.680Z,99738.84
2023-04-24T02:18:27.818Z,99736.75
2023-04-24T02:20:54.188Z,99739.28
2023-04-24T02:23:20.499Z,99726.91
2023-04-24T02:25:47.359Z,99729.41
2023-04-24T02:28:13.437Z,99721.66
2023-04-24T02:30:39.801Z,99725.84
2023-04-24T02:33:06.073Z,99720.00
2023-04-24T02:35:32.559Z,99718.72
2023-04-24T02:37:58.700Z,99715.97
2023-04-24T02:40:25.162Z,99707.81
2023-04-24T02:42:51.204Z,99706.56
2023-04-24T02:45:17.525Z,99707.78
2023-04-24T02:47:46.422Z,99706.09
2023-04-24T02:50:12.844Z,99695.41
2023-04-24T02:52:38.930Z,99698.78
2023-04-24T02:55:05.679Z,99693.09
2023-04-24T02:57:31.795Z,99700.88
2023-04-24T02:59:58.108Z,99689.31
2023-04-24T03:02:24.339Z,99688.91
2023-04-24T03:04:50.927Z,99687.66
2023-04-24T03:07:17.227Z,99691.19
2023-04-24T03:09:43.751Z,99679.84
2023-04-24T03:12:10.261Z,99680.47
2023-04-24T03:14:36.698Z,99683.59
2023-04-24T03:17:02.776Z,99681.25
2023-04-24T03:19:29.231Z,99679.31
2023-04-24T03:22:03.008Z,99678.25
2023-04-24T03:24:30.953Z,99675.91
2023-04-24T03:26:57.499Z,99678.41
2023-04-24T03:29:46.230Z,99667.91
2023-04-24T03:32:13.104Z,99667.91
2023-04-24T03:34:39.806Z,99667.31
2023-04-24T03:37:07.576Z,99670.88
2023-04-24T03:39:35.971Z,99668.59
2023-04-24T03:42:02.649Z,99669.44
2023-04-24T03:44:40.778Z,99665.88
2023-04-24T03:47:06.940Z,99663.97
2023-04-24T03:49:33.903Z,99665.22
2023-04-24T03:52:00.213Z,99665.22
2023-04-24T03:54:27.857Z,99659.94
2023-04-24T03:56:54.220Z,99663.94
2023-04-24T03:59:21.475Z,99660.38
2023-04-24T04:01:58.163Z,99665.19
2023-04-24T04:04:25.171Z,99670.88
2023-04-24T04:06:52.330Z,99670.69
2023-04-24T04:09:19.017Z,99674.47
2023-04-24T04:11:45.578Z,99674.06
2023-04-24T04:14:12.612Z,99676.59
2023-04-24T04:16:41.140Z,99674.09
2023-04-24T04:19:08.525Z,99660.47
2023-04-24T04:21:34.757Z,99661.97
2023-04-24T04:24:10.160Z,99653.81
2023-04-24T04:26:41.518Z,99653.81
2023-04-24T04:29:10.490Z,99654.41
2023-04-24T04:31:40.462Z,99647.06
2023-04-24T04:34:12.005Z,99655.31
2023-04-24T04:36:40.355Z,99660.38
2023-04-24T04:39:25.559Z,99656.59
2023-04-24T04:41:59.017Z,99654.31
2023-04-24T04:44:31.061Z,99652.63
2023-04-24T04:47:00.785Z,99649.91
2023-04-24T04:49:31.207Z,99657.88
2023-04-24T04:51:57.715Z,99659.97
2023-04-24T04:54:26.158Z,99660.22
2023-04-24T04:56:52.500Z,99664.63
2023-04-24T04:59:19.175Z,99665.47
2023-04-24T05:01:46.714Z,99661.31
2023-04-24T05:04:15.364Z,99665.91
2023-04-24T05:06:41.760Z,99657.47
2023-04-24T05:09:08.593Z,99651.19
2023-04-24T05:11:42.307Z,99653.47
2023-04-24T05:14:09.261Z,99654.53
2023-04-24T05:16:37.547Z,99657.72
2023-04-24T05:19:05.867Z,99650.00
2023-04-24T05:21:36.918Z,99656.94
2023-04-24T05:24:03.523Z,99654.19
2023-04-24T05:26:55.889Z,99659.44
2023-04-24T05:29:26.783Z,99652.28
2023-04-24T05:31:53.717Z,99651.66
2023-04-24T05:34:20.538Z,99652.50
2023-04-24T05:36:50.976Z,99657.53
2023-04-24T05:39:17.597Z,99655.84
2023-04-24T05:41:44.434Z,99651.03
2023-04-24T05:44:10.870Z,99657.13
2023-04-24T05:46:37.195Z,99654.81
2023-04-24T05:49:03.657Z,99661.34
2023-04-24T05:51:31.984Z,99657.56
2023-04-24T05:53:59.036Z,99653.16
2023-04-24T05:56:25.995Z,99660.50
2023-04-24T05:58:52.390Z,99664.91
2023-04-24T06:01:20.063Z,99661.34
2023-04-24T06:03:53.878Z,99659.22
2023-04-24T06:06:20.123Z,99666.09
2023-04-24T06:08:46.630Z,99667.09
2023-04-24T06:11:12.829Z,99665.84
2023-04-24T06:13:39.696Z,99663.25
2023-04-24T06:16:30.227Z,99658.38
2023-04-24T06:19:03.200Z,99652.69
2023-04-24T06:21:29.668Z,99659.41
2023-04-24T06:23:56.500Z,99662.59
2023-04-24T06:26:25.614Z,99666.28
2023-04-24T06:28:53.921Z,99666.44
2023-04-24T06:31:20.585Z,99673.44
2023-04-24T06:33:46.965Z,99661.16
2023-04-24T06:36:13.175Z,99662.84
2023-04-24T06:38:40.324Z,99664.81
2023-04-24T06:41:06.456Z,99671.22
2023-04-24T06:43:33.197Z,99669.50
2023-04-24T06:46:00.228Z,99672.53
2023-04-24T06:48:26.800Z,99664.41
2023-04-24T06:50:53.550Z,99665.09
2023-04-24T06:53:20.080Z,99660.00
2023-04-24T06:55:46.386Z,99659.28
2023-04-24T06:58:12.850Z,99650.88
2023-04-24T07:00:39.397Z,99662.91
2023-04-24T07:03:06.276Z,99666.09
2023-04-24T07:05:35.678Z,99669.06
2023-04-24T07:08:03.337Z,99659.94
2023-04-24T07:10:30.735Z,99662.63
2023-04-24T07:12:57.307Z,99663.59
2023-04-24T07:15:23.916Z,99663.88
2023-04-24T07:17:50.496Z,99674.66
2023-04-24T07:20:16.600Z,99678.03
2023-04-24T07:22:43.552Z,99680.38
2023-04-24T07:25:09.770Z,99675.44
2023-04-24T07:27:36.414Z,99683.19
2023-04-24T07:30:04.382Z,99675.16
2023-04-24T07:32:31.070Z,99684.00
2023-04-24T07:34:57.337Z,99679.94
2023-04-24T07:37:24.342Z,99676.25
2023-04-24T07:39:50.712Z,99680.56
2023-04-24T07:42:17.059Z,99674.91
2023-04-24T07:44:43.160Z,99684.56
2023-04-24T07:47:10.888Z,99679.56
2023-04-24T07:49:37.115Z,99683.03
2023-04-24T07:52:03.678Z,99682.09
2023-04-24T07:54:30.208Z,99685.19
2023-04-24T07:56:56.646Z,99689.38
2023-04-24T07:59:22.749Z,99691.25
2023-04-24T08:01:49.089Z,99693.28
2023-04-24T08:04:15.337Z,99690.69
2023-04-24T08:06:41.822Z,99688.75
2023-04-24T08:09:07.870Z,99690.63
2023-04-24T08:11:34.246Z,99688.78
2023-04-24T08:14:00.329Z,99686.59
2023-04-24T08:16:27.042Z,99691.03
2023-04-24T08:18:53.543Z,99690.78
2023-04-24T08:21:20.949Z,99686.41
2023-04-24T08:23:47.065Z,99690.25
2023-04-24T08:26:13.924Z,99687.13
2023-04-24T08:28:40.129Z,99691.91
2023-04-24T08:31:06.821Z,99691.34
2023-04-24T08:33:35.037Z,99688.31
2023-04-24T08:36:05.900Z,99695.13
2023-04-24T08:38:32.423Z,99691.81
2023-04-24T08:41:00.467Z,99693.41
2023-04-24T08:43:28.177Z,99691.88
2023-04-24T08:45:58.195Z,99694.94
2023-04-24T08:48:31.066Z,99686.50
2023-04-24T08:50:59.467Z,99692.31
2023-04-24T08:53:26.473Z,99687.72
2023-04-24T08:55:55.530Z,99685.00
2023-04-24T08:58:23.148Z,99688.41
2023-04-24T09:00:49.940Z,99686.13
2023-04-24T09:03:17.497Z,99684.91
2023-04-24T09:05:46.387Z,99681.31
2023-04-24T09:08:14.472Z,99693.28
2023-04-24T09:10:41.532Z,99693.09
2023-04-24T09:13:10.329Z,99690.56
2023-04-24T09:15:37.985Z,99691.72
2023-04-24T09:18:05.104Z,99691.06
2023-04-24T09:20:32.497Z,99698.25
2023-04-24T09:22:59.509Z,99692.97
2023-04-24T09:25:38.432Z,99696.59
2023-04-24T09:28:06.805Z,99696.47
2023-04-24T09:30:33.169Z,99696.53
2023-04-24T09:33:16.346Z,99690.63
2023-04-24T09:35:49.650Z,99700.97
2023-04-24T09:38:16.056Z,99700.06
2023-04-24T09:40:42.648Z,99696.16
2023-04-24T09:43:11.611Z,99696.59
2023-04-24T09:45:41.264Z,99697.25
2023-04-24T09:48:10.993Z,99699.63
2023-04-24T09:50:37.517Z,99695.66
2023-04-24T09:53:06.092Z,99702.00
2023-04-24T09:55:33.414Z,99702.78
2023-04-24T09:58:00.810Z,99704.66
2023-04-24T10:00:28.307Z,99707.53
2023-04-24T10:03:05.093Z,99706.59
2023-04-24T10:05:33.732Z,99708.28
2023-04-24T10:08:07.768Z,99708.47
2023-04-24T10:10:38.552Z,99706.19
2023-04-24T10:13:04.921Z,99709.34
2023-04-24T10:15:32.035Z,99704.31
2023-04-24T10:17:59.736Z,99705.69
2023-04-24T10:20:31.590Z,99699.97
2023-04-24T10:22:58.859Z,99703.03
2023-04-24T10:25:30.765Z,99704.97
2023-04-24T10:28:00.061Z,99704.97
2023-04-24T10:30:35.167Z,99705.66
2023-04-24T10:33:05.857Z,99706.13
2023-04-24T10:35:37.857Z,99709.19
2023-04-24T10:38:09.576Z,99705.50
2023-04-24T10:40:37.228Z,99701.63
2023-04-24T10:43:08.187Z,99706.63
2023-04-24T10:45:38.686Z,99698.19
2023-04-24T10:48:11.160Z,99708.06
2023-04-24T10:50:44.186Z,99700.94
2023-04-24T10:53:17.279Z,99696.69
2023-04-24T10:55:52.450Z,99698.09
2023-04-24T10:58:23.577Z,99706.75
2023-04-24T11:00:58.408Z,99709.56
2023-04-24T11:03:27.822Z,99699.81
2023-04-24T11:06:06.659Z,99707.78
2023-04-24T11:08:39.383Z,99699.66
2023-04-24T11:11:15.088Z,99702.09
2023-04-24T11:13:56.937Z,99710.38
2023-04-24T11:16:23.497Z,99697.25
2023-04-24T11:19:04.612Z,99712.84
2023-04-24T11:21:32.519Z,99700.78
2023-04-24T11:23:58.915Z,99703.16
2023-04-24T11:26:32.425Z,99715.41
2023-04-24T11:29:08.704Z,99714.31
2023-04-24T11:31:41.233Z,99710.41
2023-04-24T11:34:12.398Z,99706.03
2023-04-24T11:36:40.678Z,99707.16
2023-04-24T11:39:06.972Z,99705.47
2023-04-24T11:41:35.839Z,99696.28
2023-04-24T11:44:04.167Z,99698.72
2023-04-24T11:46:31.775Z,99706.47
2023-04-24T11:48:59.489Z,99709.41
2023-04-24T11:51:31.372Z,99714.13
2023-04-24T11:54:08.139Z,99717.69
2023-04-24T11:56:34.593Z,99715.47
2023-04-24T11:59:04.941Z,99711.59
2023-04-24T12:01:43.433Z,99714.16
2023-04-24T12:04:09.781Z,99713.50
2023-04-24T12:06:36.416Z,99710.03
2023-04-24T12:09:11.531Z,99706.78
2023-04-24T12:11:57.312Z,99703.06
2023-04-24T12:14:24.591Z,99694.22
2023-04-24T12:16:51.507Z,99694.19
2023-04-24T12:19:24.258Z,99690.38
2023-04-24T12:22:01.748Z,99684.63
2023-04-24T12:24:28.077Z,99686.31
2023-04-24T12:26:55.094Z,99692.63
2023-04-24T12:29:21.592Z,99692.16
2023-04-24T12:31:48.702Z,99685.13
2023-04-24T12:34:21.017Z,99692.06
2023-04-24T12:36:48.650Z,99678.06
2023-04-24T12:39:19.730Z,99683.22
2023-04-24T12:42:11.706Z,99685.50
2023-04-24T12:44:38.129Z,99678.56
2023-04-24T12:47:04.791Z,99687.28
2023-04-24T12:49:31.195Z,99686.31
2023-04-24T12:51:57.653Z,99682.25
2023-04-24T12:54:23.819Z,99684.78
2023-04-24T12:56:50.871Z,99681.06
2023-04-24T12:59:17.103Z,99677.00
2023-04-24T13:01:43.704Z,99681.41
2023-04-24T13:04:10.116Z,99672.31
2023-04-24T13:06:36.651Z,99664.03
2023-04-24T13:09:03.780Z,99664.28
2023-04-24T13:11:30.273Z,99668.84
2023-04-24T13:13:56.555Z,99675.16
2023-04-24T13:16:23.762Z,99670.66
2023-04-24T13:18:49.918Z,99672.31
2023-04-24T13:21:16.363Z,99671.84
2023-04-24T13:23:43.088Z,99666.84
2023-04-24T13:26:09.746Z,99660.03
2023-04-24T13:28:35.861Z,99668.28
2023-04-24T13:31:02.313Z,99658.72
2023-04-24T13:33:29.272Z,99659.78
2023-04-24T13:35:55.649Z,99663.00
2023-04-24T13:38:22.828Z,99651.28
2023-04-24T13:40:49.417Z,99661.22
2023-04-24T13:43:16.042Z,99665.75
2023-04-24T13:45:42.611Z,99670.06
2023-04-24T13:48:09.570Z,99662.63
2023-04-24T13:50:36.058Z,99665.38
2023-04-24T13:53:03.115Z,99671.22
2023-04-24T13:55:29.856Z,99672.03
2023-04-24T13:57:56.168Z,99675.06
2023-04-24T14:00:22.841Z,99674.56
2023-04-24T14:02:49.406Z,99683.53
2023-04-24T14:05:16.312Z,99689.66
2023-04-24T14:07:42.658Z,99690.44
2023-04-24T14:10:09.825Z,99683.75
2023-04-24T14:12:36.310Z,99695.28
2023-04-24T14:15:03.763Z,99694.81
2023-04-24T14:17:31.130Z,99703.34
2023-04-24T14:20:00.205Z,99712.91
2023-04-24T14:22:26.769Z,99715.16
2023-04-24T14:24:53.632Z,99714.13
2023-04-24T14:27:20.369Z,99712.63
2023-04-24T14:29:47.001Z,99712.34
2023-04-24T14:32:15.391Z,99711.16
2023-04-24T14:34:42.222Z,99711.41
2023-04-24T14:37:08.587Z,99711.16
2023-04-24T14:39:35.387Z,99714.34
2023-04-24T14:42:02.038Z,99702.38
2023-04-24T14:44:28.622Z,99697.56
2023-04-24T14:46:55.481Z,99706.91
2023-04-24T14:49:22.299Z,99697.56
2023-04-24T14:51:48.665Z,99686.41
2023-04-24T14:54:15.255Z,99680.25
2023-04-24T14:56:42.990Z,99677.06
2023-04-24T14:59:09.806Z,99667.56
2023-04-24T15:01:36.476Z,99669.22
2023-04-24T15:04:03.470Z,99659.66
2023-04-24T15:06:31.871Z,99661.47
2023-04-24T15:08:58.620Z,99657.59
2023-04-24T15:11:24.998Z,99650.97
2023-04-24T15:13:51.560Z,99655.63
2023-04-24T15:16:17.895Z,99655.56
2023-04-24T15:18:44.855Z,99663.50
2023-04-24T15:21:11.201Z,99655.13
2023-04-24T15:23:37.687Z,99669.03
2023-04-24T15:26:03.890Z,99666.94
2023-04-24T15:28:30.344Z,99663.75
2023-04-24T15:30:56.474Z,99668.72
2023-04-24T15:33:23.413Z,99668.22
2023-04-24T15:35:49.743Z,99670.97
2023-04-24T15:38:16.212Z,99672.06
2023-04-24T15:40:42.362Z,99666.66
2023-04-24T15:43:08.863Z,99678.44
2023-04-24T15:45:35.543Z,99676.78
2023-04-24T15:48:02.472Z,99680.22
2023-04-24T15:50:28.698Z,99684.75
2023-04-24T15:52:55.432Z,99675.22
2023-04-24T15:55:21.856Z,99679.25
2023-04-24T15:57:48.999Z,99682.63
2023-04-24T16:00:15.746Z,99668.81
2023-04-24T16:02:42.290Z,99680.00
2023-04-24T16:05:09.041Z,99678.13
2023-04-24T16:07:37.932Z,99675.41
2023-04-24T16:10:04.422Z,99671.44
2023-04-24T16:12:30.899Z,99672.31
2023-04-24T16:14:57.447Z,99676.13
2023-04-24T16:17:23.887Z,99677.38
2023-04-24T16:19:49.988Z,99675.72
2023-04-24T16:22:16.524Z,99675.72
2023-04-24T16:24:43.903Z,99682.66
2023-04-24T16:27:10.902Z,99670.00
2023-04-24T16:29:37.111Z,99670.44
2023-04-24T16:32:03.835Z,99664.34
2023-04-24T16:34:30.028Z,99664.53
2023-04-24T16:36:56.777Z,99664.75
2023-04-24T16:39:23.057Z,99660.56
2023-04-24T16:41:50.032Z,99668.75
2023-04-24T16:44:16.527Z,99663.28
2023-04-24T16:46:43.294Z,99670.44
2023-04-24T16:49:09.696Z,99673.38
2023-04-24T16:51:36.253Z,99675.50
2023-04-24T16:54:02.669Z,99683.50
2023-04-24T16:56:29.258Z,99669.22
2023-04-24T16:58:56.091Z,99673.06
2023-04-24T17:01:23.481Z,99682.53
2023-04-24T17:03:50.106Z,99681.06
2023-04-24T17:06:17.212Z,99675.63
2023-04-24T17:08:43.722Z,99668.91
2023-04-24T17:11:10.663Z,99673.94
2023-04-24T17:13:37.132Z,99673.53
2023-04-24T17:16:03.850Z,99687.38
2023-04-24T17:18:30.348Z,99694.13
2023-04-24T17:20:56.886Z,99696.84
2023-04-24T17:23:23.520Z,99693.47
2023-04-24T17:25:50.275Z,99705.44
2023-04-24T17:28:26.454Z,99703.78
2023-04-24T17:30:59.666Z,99705.25
2023-04-24T17:33:27.431Z,99698.31
2023-04-24T17:35:54.412Z,99716.09
2023-04-24T17:38:21.085Z,99709.56
2023-04-24T17:40:53.490Z,99717.97
2023-04-24T17:43:23.494Z,99716.31
2023-04-24T17:45:51.639Z,99719.44
2023-04-24T17:48:18.771Z,99716.50
2023-04-24T17:50:45.689Z,99724.47
2023-04-24T17:53:12.063Z,99724.66
2023-04-24T17:55:39.827Z,99728.84
2023-04-24T17:58:06.265Z,99728.22
2023-04-24T18:00:33.918Z,99731.81
2023-04-24T18:03:01.555Z,99733.94
2023-04-24T18:05:32.675Z,99738.53
2023-04-24T18:07:59.489Z,99730.97
2023-04-24T18:10:27.696Z,99732.63
2023-04-24T18:12:54.557Z,99730.72
2023-04-24T18:15:21.605Z,99728.78
2023-04-24T18:17:48.448Z,99729.78
2023-04-24T18:20:19.213Z,99728.13
2023-04-24T18:22:46.208Z,99737.34
2023-04-24T18:25:15.084Z,99731.88
2023-04-24T18:27:42.129Z,99737.13
2023-04-24T18:30:12.794Z,99731.84
2023-04-24T18:32:41.099Z,99738.38
2023-04-24T18:35:08.044Z,99738.56
2023-04-24T18:37:35.361Z,99742.53
2023-04-24T18:40:02.998Z,99734.59
2023-04-24T18:42:29.399Z,99733.97
2023-04-24T18:45:00.530Z,99735.84
2023-04-24T18:47:27.635Z,99730.59
2023-04-24T18:49:55.074Z,99737.13
2023-04-24T18:52:21.356Z,99742.59
2023-04-24T18:54:47.914Z,99748.22
2023-04-24T18:57:14.685Z,99736.06
2023-04-24T18:59:41.348Z,99740.88
2023-04-24T19:02:07.889Z,99738.34
2023-04-24T19:04:34.475Z,99739.81
2023-04-24T19:07:01.155Z,99743.34
2023-04-24T19:09:27.625Z,99744.97
2023-04-24T19:11:54.204Z,99748.31
2023-04-24T19:14:22.045Z,99745.97
2023-04-24T19:16:49.282Z,99746.19
2023-04-24T19:19:15.783Z,99752.22
2023-04-24T19:21:42.229Z,99754.53
2023-04-24T19:24:10.273Z,99750.34
2023-04-24T19:26:36.569Z,99745.72
2023-04-24T19:29:03.449Z,99750.28
2023-04-24T19:31:29.672Z,99746.28
2023-04-24T19:33:56.305Z,99750.69
2023-04-24T19:36:23.255Z,99748.63
2023-04-24T19:38:50.200Z,99741.88
2023-04-24T19:41:16.728Z,99747.50
2023-04-24T19:43:43.331Z,99751.06
2023-04-24T19:46:10.191Z,99761.97
2023-04-24T19:48:36.986Z,99744.72
2023-04-24T19:51:03.507Z,99752.25
2023-04-24T19:53:30.132Z,99758.34
2023-04-24T19:55:56.747Z,99746.50
2023-04-24T19:58:23.260Z,99753.03
2023-04-24T20:00:49.830Z,99750.91
2023-04-24T20:03:32.035Z,99751.75
2023-04-24T20:06:00.531Z,99742.94
2023-04-24T20:08:30.450Z,99755.91
2023-04-24T20:11:00.526Z,99738.66
2023-04-24T20:13:31.295Z,99763.13
2023-04-24T20:15:58.215Z,99743.19
2023-04-24T20:18:25.692Z,99758.88
2023-04-24T20:21:01.450Z,99751.09
2023-04-24T20:23:28.213Z,99745.41
2023-04-24T20:25:57.497Z,99744.31
2023-04-24T20:28:26.105Z,99737.44
2023-04-24T20:30:53.322Z,99741.53
2023-04-24T20:33:20.881Z,99753.13
2023-04-24T20:35:48.894Z,99739.19
2023-04-24T20:38:17.789Z,99754.16
2023-04-24T20:40:56.626Z,99749.06
2023-04-24T20:43:28.399Z,99748.22
2023-04-24T20:45:57.031Z,99758.13
2023-04-24T20:48:25.454Z,99773.81
2023-04-24T20:50:53.218Z,99774.34
2023-04-24T20:53:22.965Z,99762.28
2023-04-24T20:55:53.583Z,99780.94
2023-04-24T20:58:22.400Z,99766.88
2023-04-24T21:00:51.042Z,99757.75
2023-04-24T21:03:18.575Z,99753.84
2023-04-24T21:05:47.693Z,99761.75
2023-04-24T21:08:14.476Z,99759.97
2023-04-24T21:10:43.489Z,99772.09
2023-04-24T21:13:12.905Z,99780.91
2023-04-24T21:15:39.182Z,99774.31
2023-04-24T21:18:05.720Z,99787.84
2023-04-24T21:20:32.063Z,99786.34
2023-04-24T21:22:58.511Z,99790.34
2023-04-24T21:25:25.767Z,99795.59
2023-04-24T21:27:53.270Z,99792.22
2023-04-24T21:30:21.195Z,99796.06
2023-04-24T21:32:48.248Z,99789.88
2023-04-24T21:35:14.601Z,99799.53
2023-04-24T21:37:41.331Z,99796.16
2023-04-24T21:40:10.560Z,99795.78
2023-04-24T21:42:38.516Z,99798.31
2023-04-24T21:45:05.573Z,99800.38
2023-04-24T21:47:32.085Z,99802.00
2023-04-24T21:49:58.608Z,99803.50
2023-04-24T21:52:25.265Z,99803.09
2023-04-24T21:54:51.824Z,99808.25
2023-04-24T21:57:18.481Z,99798.81
2023-04-24T21:59:44.994Z,99806.19
2023-04-24T22:02:11.817Z,99805.53
2023-04-24T22:04:38.355Z,99807.50
2023-04-24T22:07:04.962Z,99805.34
2023-04-24T22:09:31.411Z,99808.63
2023-04-24T22:11:58.276Z,99813.13
2023-04-24T22:14:24.683Z,99810.88
2023-04-24T22:16:51.141Z,99814.25
2023-04-24T22:19:17.266Z,99819.56
2023-04-24T22:21:43.729Z,99813.94
2023-04-24T22:24:09.918Z,99813.28
2023-04-24T22:26:36.273Z,99822.94
2023-04-24T22:29:02.552Z,99825.09
2023-04-24T22:31:29.100Z,99829.50
2023-04-24T22:33:55.236Z,99827.53
2023-04-24T22:36:21.664Z,99830.16
2023-04-24T22:38:47.762Z,99836.25
2023-04-24T22:41:14.255Z,99827.94
2023-04-24T22:43:40.386Z,99834.34
2023-04-24T22:46:06.749Z,99833.63
2023-04-24T22:48:33.750Z,99836.88
2023-04-24T22:51:00.536Z,99838.94
2023-04-24T22:53:28.092Z,99841.19
2023-04-24T22:55:55.665Z,99844.06
2023-04-24T22:58:21.918Z,99850.47
2023-04-24T23:00:48.316Z,99851.31
2023-04-24T23:03:14.640Z,99843.91
2023-04-24T23:05:41.174Z,99843.25
2023-04-24T23:08:07.253Z,99843.19
2023-04-24T23:10:33.708Z,99836.25
2023-04-24T23:12:59.741Z,99834.19
2023-04-24T23:15:26.331Z,99842.94
2023-04-24T23:17:52.428Z,99836.44
2023-04-24T23:20:21.272Z,99842.69
2023-04-24T23:22:47.503Z,99840.00
2023-04-24T23:25:14.030Z,99846.50
2023-04-24T23:27:40.135Z,99842.47
2023-04-24T23:30:07.375Z,99846.88
2023-04-24T23:32:33.497Z,99835.53
2023-04-24T23:35:00.392Z,99831.31
2023-04-24T23:37:26.705Z,99835.69
2023-04-24T23:39:52.758Z,99841.78
2023-04-24T23:42:19.172Z,99839.75
2023-04-24T23:44:45.321Z,99842.31
2023-04-24T23:47:11.631Z,99838.41
2023-04-24T23:49:37.777Z,99836.47
2023-04-24T23:52:04.348Z,99842.25
2023-04-24T23:54:30.696Z,99843.81
2023-04-24T23:56:57.064Z,99839.91
2023-04-24T23:59:23.163Z,99845.88
